Time;durP1;ratioP1;P1;durP2;ratioP2;P2;SDS_P1;SDS_P2;PMS_P1;PMS_P2;Temp;Humidity;BMP_temperature;BMP_pressure;BME280_temperature;BME280_humidity;BME280_pressure;Samples;Min_cycle;Max_cycle;Signal;HPM_P1;HPM_P2
2022/10/10 00:01:04;;;;;;;0.03;0.03;;;17.00;79.10;;;;;;4193900;28;20046;-69
2022/10/10 00:03:47;;;;;;;0.00;0.00;;;17.00;79.10;;;;;;4193889;28;20051;-70
2022/10/10 00:06:28;;;;;;;0.00;0.00;;;17.00;79.10;;;;;;4193586;28;20055;-70
2022/10/10 00:09:13;;;;;;;0.00;0.00;;;17.00;79.20;;;;;;4193333;28;20200;-70
2022/10/10 00:11:54;;;;;;;0.00;0.00;;;17.00;79.20;;;;;;4191951;28;20051;-70
2022/10/10 00:14:35;;;;;;;0.00;0.00;;;17.00;79.20;;;;;;4180166;28;20066;-68
2022/10/10 00:17:16;;;;;;;0.00;0.00;;;17.00;79.30;;;;;;4192880;28;20475;-70
2022/10/10 00:19:58;;;;;;;0.00;0.00;;;17.00;79.30;;;;;;4176786;28;20510;-68
2022/10/10 00:22:39;;;;;;;0.00;0.00;;;16.90;79.30;;;;;;4159811;28;20120;-71
2022/10/10 00:25:20;;;;;;;0.10;0.10;;;16.90;79.30;;;;;;4148043;28;20515;-70
2022/10/10 00:28:02;;;;;;;0.00;0.00;;;17.00;79.40;;;;;;4164478;28;20495;-69
2022/10/10 00:30:43;;;;;;;0.00;0.00;;;16.90;79.50;;;;;;4176305;28;20052;-70
2022/10/10 00:33:24;;;;;;;0.00;0.00;;;16.90;79.40;;;;;;4177094;28;20048;-70
2022/10/10 00:36:07;;;;;;;0.00;0.00;;;16.90;79.40;;;;;;4179810;28;20052;-70
2022/10/10 00:38:48;;;;;;;0.00;0.00;;;16.90;79.40;;;;;;4192073;28;20109;-70
2022/10/10 00:41:28;;;;;;;0.10;0.10;;;16.90;79.40;;;;;;4180836;28;20048;-68
2022/10/10 00:44:12;;;;;;;0.00;0.00;;;16.90;79.60;;;;;;4178713;28;20515;-68
2022/10/10 00:46:53;;;;;;;0.00;0.00;;;16.90;79.40;;;;;;4174989;28;20138;-67
2022/10/10 00:49:36;;;;;;;0.22;0.22;;;16.90;79.50;;;;;;4155404;28;20056;-70
2022/10/10 00:52:18;;;;;;;0.00;0.00;;;16.90;79.50;;;;;;4148503;28;20053;-70
2022/10/10 00:54:59;;;;;;;0.00;0.00;;;16.80;79.40;;;;;;4158902;28;20056;-70
2022/10/10 00:57:40;;;;;;;0.00;0.00;;;16.80;79.40;;;;;;4165289;28;20391;-69
2022/10/10 01:00:21;;;;;;;0.00;0.00;;;16.80;79.40;;;;;;4163496;28;20535;-70
2022/10/10 01:03:02;;;;;;;0.00;0.00;;;16.90;79.50;;;;;;4171603;28;20052;-69
2022/10/10 01:05:44;;;;;;;0.00;0.00;;;16.80;79.50;;;;;;4176223;28;20043;-69
2022/10/10 01:08:27;;;;;;;0.00;0.00;;;16.80;79.50;;;;;;4174538;28;20068;-70
2022/10/10 01:11:25;;;;;;;0.00;0.00;;;16.80;79.60;;;;;;4175989;28;20052;-70
2022/10/10 01:14:15;;;;;;;0.00;0.00;;;16.80;79.60;;;;;;4158284;28;20542;-69
2022/10/10 01:17:02;;;;;;;0.43;0.43;;;16.80;79.60;;;;;;4174909;28;20102;-70
2022/10/10 01:20:16;;;;;;;0.00;0.00;;;16.80;79.60;;;;;;4174573;28;20166;-70
2022/10/10 01:23:15;;;;;;;0.00;0.00;;;16.80;79.60;;;;;;4175678;28;20048;-70
2022/10/10 01:26:13;;;;;;;0.00;0.00;;;16.80;80.60;;;;;;4162889;28;20047;-69
2022/10/10 01:29:02;;;;;;;0.10;0.10;;;16.80;79.70;;;;;;4174933;28;20209;-70
2022/10/10 01:31:46;;;;;;;0.13;0.13;;;16.70;79.70;;;;;;4191290;28;20158;-70
2022/10/10 01:34:36;;;;;;;0.73;0.73;;;16.70;79.70;;;;;;4173419;28;20071;-70
2022/10/10 01:37:19;;;;;;;0.00;0.00;;;16.70;79.80;;;;;;4173463;28;20074;-70
2022/10/10 01:40:05;;;;;;;0.00;0.00;;;16.70;79.80;;;;;;4191194;28;20388;-71
2022/10/10 01:42:51;;;;;;;0.00;0.00;;;16.70;79.80;;;;;;4191238;28;20067;-71
2022/10/10 01:45:33;;;;;;;0.00;0.00;;;16.70;79.90;;;;;;4191134;28;20122;-70
2022/10/10 01:48:18;;;;;;;0.00;0.00;;;16.70;79.90;;;;;;4191900;28;20047;-70
2022/10/10 01:51:23;;;;;;;0.20;0.20;;;16.70;79.90;;;;;;4190152;28;20048;-70
2022/10/10 01:54:12;;;;;;;0.00;0.00;;;16.70;79.90;;;;;;4191153;28;20153;-70
2022/10/10 01:57:03;;;;;;;0.00;0.00;;;16.70;80.80;;;;;;4191542;28;20051;-70
2022/10/10 01:59:53;;;;;;;1.85;0.90;;;16.70;80.00;;;;;;4174881;28;20056;-70
2022/10/10 02:02:42;;;;;;;0.00;0.00;;;16.70;80.00;;;;;;4192285;28;20055;-70
2022/10/10 02:05:28;;;;;;;0.00;0.00;;;16.70;80.00;;;;;;4191989;28;20113;-71
2022/10/10 02:08:13;;;;;;;0.00;0.00;;;16.70;80.00;;;;;;4191437;28;20055;-71
2022/10/10 02:10:58;;;;;;;0.00;0.00;;;16.60;80.00;;;;;;4191609;28;20063;-71
2022/10/10 02:13:41;;;;;;;0.00;0.00;;;16.60;80.00;;;;;;4191764;28;20455;-70
2022/10/10 02:16:26;;;;;;;0.17;0.17;;;16.60;80.10;;;;;;4174659;28;20134;-70
2022/10/10 02:19:12;;;;;;;0.20;0.20;;;16.60;80.10;;;;;;4173718;28;20056;-70
2022/10/10 02:21:55;;;;;;;0.00;0.00;;;16.60;80.10;;;;;;4173842;28;20059;-70
2022/10/10 02:24:36;;;;;;;0.00;0.00;;;16.60;80.10;;;;;;4188795;28;20052;-71
2022/10/10 02:27:25;;;;;;;0.00;0.00;;;16.60;80.10;;;;;;4191926;28;20506;-71
2022/10/10 02:30:07;;;;;;;0.00;0.00;;;16.60;80.20;;;;;;4190721;28;20055;-71
2022/10/10 02:32:52;;;;;;;0.00;0.00;;;16.60;80.20;;;;;;4190883;28;20047;-69
2022/10/10 02:35:37;;;;;;;0.05;0.05;;;16.60;80.20;;;;;;4179119;28;20059;-68
2022/10/10 02:38:20;;;;;;;0.10;0.10;;;16.60;80.20;;;;;;4170675;28;20051;-69
2022/10/10 02:41:02;;;;;;;0.00;0.00;;;16.50;80.20;;;;;;4189315;28;20101;-69
2022/10/10 02:43:44;;;;;;;0.00;0.00;;;16.60;80.20;;;;;;4174915;28;20068;-69
2022/10/10 02:46:25;;;;;;;0.00;0.00;;;16.50;80.20;;;;;;4177073;28;20051;-69
2022/10/10 02:49:08;;;;;;;0.00;0.00;;;16.50;80.30;;;;;;4174325;28;20090;-69
2022/10/10 02:51:50;;;;;;;0.10;0.10;;;16.50;80.20;;;;;;4158300;28;20064;-69
2022/10/10 02:54:31;;;;;;;0.00;0.00;;;16.50;80.30;;;;;;4126469;28;20049;-68
2022/10/10 02:57:12;;;;;;;0.00;0.00;;;16.50;80.30;;;;;;4152829;28;20187;-69
2022/10/10 02:59:53;;;;;;;0.38;0.38;;;16.40;80.20;;;;;;4162371;28;20053;-69
2022/10/10 03:02:34;;;;;;;0.10;0.10;;;16.50;80.30;;;;;;4156686;28;20173;-69
2022/10/10 03:05:16;;;;;;;0.00;0.00;;;16.50;81.20;;;;;;4146811;28;20435;-69
2022/10/10 03:07:58;;;;;;;0.13;0.13;;;16.50;80.50;;;;;;4144348;28;20053;-69
2022/10/10 03:10:39;;;;;;;0.00;0.00;;;16.50;80.40;;;;;;4143967;28;20048;-69
2022/10/10 03:13:20;;;;;;;0.00;0.00;;;16.40;80.30;;;;;;4145673;28;20056;-69
2022/10/10 03:16:02;;;;;;;2.22;2.03;;;16.40;80.30;;;;;;4148899;28;20064;-69
2022/10/10 03:18:43;;;;;;;0.00;0.00;;;16.40;80.40;;;;;;4161289;28;20056;-70
2022/10/10 03:21:24;;;;;;;0.00;0.00;;;16.40;80.40;;;;;;4147776;28;20176;-69
2022/10/10 03:24:07;;;;;;;0.13;0.13;;;16.40;80.40;;;;;;4144946;28;20522;-69
2022/10/10 03:26:47;;;;;;;0.00;0.00;;;16.40;80.50;;;;;;4160294;28;20048;-68
2022/10/10 03:29:28;;;;;;;0.75;0.75;;;16.40;80.40;;;;;;4133766;28;20048;-69
2022/10/10 03:32:08;;;;;;;0.00;0.00;;;16.40;80.50;;;;;;4144884;28;20595;-69
2022/10/10 03:34:50;;;;;;;0.00;0.00;;;16.40;79.90;;;;;;4161107;28;20060;-68
2022/10/10 03:37:31;;;;;;;0.15;0.15;;;16.40;80.50;;;;;;4161445;28;20068;-69
2022/10/10 03:40:14;;;;;;;0.08;0.08;;;16.30;80.50;;;;;;4171696;28;20072;-69
2022/10/10 03:42:54;;;;;;;0.00;0.00;;;16.30;80.60;;;;;;4153088;28;20068;-68
2022/10/10 03:45:35;;;;;;;0.00;0.00;;;16.30;80.60;;;;;;4144482;28;20053;-69
2022/10/10 03:48:17;;;;;;;0.00;0.00;;;16.30;80.60;;;;;;4161341;28;20547;-69
2022/10/10 03:50:58;;;;;;;0.00;0.00;;;16.30;80.60;;;;;;4187122;28;20570;-69
2022/10/10 03:53:39;;;;;;;0.03;0.03;;;16.30;81.50;;;;;;4193698;28;20101;-71
2022/10/10 03:56:21;;;;;;;0.00;0.00;;;16.30;80.60;;;;;;4194013;28;20051;-71
2022/10/10 03:59:02;;;;;;;0.00;0.00;;;16.30;80.60;;;;;;4176543;28;20089;-71
2022/10/10 04:01:43;;;;;;;0.03;0.03;;;16.30;80.70;;;;;;4192952;28;20052;-71
2022/10/10 04:04:24;;;;;;;0.00;0.00;;;16.30;80.80;;;;;;4164446;28;20059;-71
2022/10/10 04:07:05;;;;;;;0.00;0.00;;;16.30;80.90;;;;;;4161815;28;20052;-71
2022/10/10 04:09:46;;;;;;;0.00;0.00;;;16.30;80.80;;;;;;4182614;28;20055;-70
2022/10/10 04:12:28;;;;;;;0.00;0.00;;;16.30;80.80;;;;;;4193116;28;20071;-70
2022/10/10 04:15:10;;;;;;;0.00;0.00;;;16.20;80.70;;;;;;4193229;28;20442;-70
2022/10/10 04:17:51;;;;;;;0.00;0.00;;;16.30;80.80;;;;;;4180667;28;20051;-70
2022/10/10 04:20:32;;;;;;;0.00;0.00;;;16.20;80.80;;;;;;4183609;28;20047;-70
2022/10/10 04:23:13;;;;;;;0.00;0.00;;;16.30;80.90;;;;;;4191583;28;20293;-70
2022/10/10 04:25:54;;;;;;;0.00;0.00;;;16.20;80.80;;;;;;4190554;28;20514;-70
2022/10/10 04:28:36;;;;;;;0.00;0.00;;;16.20;80.90;;;;;;4191011;28;20048;-68
2022/10/10 04:31:17;;;;;;;0.17;0.17;;;16.20;80.90;;;;;;4191883;28;20503;-68
2022/10/10 04:33:58;;;;;;;0.00;0.00;;;16.20;81.80;;;;;;4193409;28;20052;-68
2022/10/10 04:36:39;;;;;;;0.00;0.00;;;16.20;80.90;;;;;;4190631;28;20384;-68
2022/10/10 04:39:20;;;;;;;0.32;0.32;;;16.20;80.90;;;;;;4192714;28;20051;-68
2022/10/10 04:42:01;;;;;;;0.77;0.77;;;16.20;80.90;;;;;;4193434;28;20055;-68
2022/10/10 04:44:43;;;;;;;0.00;0.00;;;16.20;80.90;;;;;;4193307;28;20289;-70
2022/10/10 04:47:24;;;;;;;0.00;0.00;;;16.20;80.90;;;;;;4192820;28;20506;-70
2022/10/10 04:50:05;;;;;;;0.03;0.03;;;16.20;81.40;;;;;;4191749;28;20047;-70
2022/10/10 04:52:47;;;;;;;0.00;0.00;;;16.30;81.50;;;;;;4182982;28;20051;-70
2022/10/10 04:55:28;;;;;;;0.00;0.00;;;16.30;81.40;;;;;;4192693;28;20056;-69
2022/10/10 04:58:09;;;;;;;0.00;0.00;;;16.30;81.30;;;;;;4176318;28;20479;-70
2022/10/10 05:00:53;;;;;;;0.00;0.00;;;16.30;81.10;;;;;;4159115;28;20060;-70
2022/10/10 05:03:34;;;;;;;0.20;0.20;;;16.30;81.00;;;;;;4163700;28;20079;-70
2022/10/10 05:06:15;;;;;;;0.17;0.17;;;16.30;81.00;;;;;;4180830;28;20629;-70
2022/10/10 05:08:56;;;;;;;0.00;0.00;;;16.20;80.90;;;;;;4175188;28;20056;-69
2022/10/10 05:11:36;;;;;;;0.00;0.00;;;16.20;81.00;;;;;;4176558;28;20064;-69
2022/10/10 05:14:17;;;;;;;1.08;0.80;;;16.20;80.90;;;;;;4159243;28;20083;-70
2022/10/10 05:17:00;;;;;;;0.00;0.00;;;16.20;80.90;;;;;;4169241;28;20052;-69
2022/10/10 05:19:40;;;;;;;0.00;0.00;;;16.20;80.90;;;;;;4175097;28;20052;-69
2022/10/10 05:22:21;;;;;;;0.10;0.10;;;16.20;80.90;;;;;;4163447;28;20190;-69
2022/10/10 05:25:03;;;;;;;0.00;0.00;;;16.10;80.90;;;;;;4158764;28;20053;-69
2022/10/10 05:27:44;;;;;;;0.20;0.20;;;16.10;80.90;;;;;;4174609;28;20051;-70
2022/10/10 05:30:24;;;;;;;0.00;0.00;;;16.10;81.00;;;;;;4169285;28;20392;-70
2022/10/10 05:33:06;;;;;;;0.00;0.00;;;16.10;81.10;;;;;;4174396;28;20435;-70
2022/10/10 05:35:47;;;;;;;0.20;0.20;;;16.10;81.30;;;;;;4177689;28;20056;-69
2022/10/10 05:38:28;;;;;;;0.10;0.10;;;16.10;81.90;;;;;;4174633;28;20047;-69
2022/10/10 05:41:09;;;;;;;0.00;0.00;;;16.10;81.10;;;;;;4158476;28;20136;-69
2022/10/10 05:43:50;;;;;;;0.00;0.00;;;16.10;81.10;;;;;;4175334;28;20048;-69
2022/10/10 05:46:31;;;;;;;0.10;0.10;;;16.00;81.10;;;;;;4175314;28;20056;-71
2022/10/10 05:49:13;;;;;;;0.08;0.08;;;16.00;81.10;;;;;;4161423;28;20283;-69
2022/10/10 05:51:54;;;;;;;0.75;0.45;;;16.00;81.10;;;;;;4162535;28;20194;-72
2022/10/10 05:54:35;;;;;;;0.10;0.10;;;16.00;81.10;;;;;;4179143;28;20063;-72
2022/10/10 05:57:16;;;;;;;0.00;0.00;;;16.00;81.20;;;;;;4190872;28;20047;-71
2022/10/10 05:59:57;;;;;;;0.25;0.25;;;16.00;81.20;;;;;;4174477;28;20044;-72
2022/10/10 06:02:38;;;;;;;0.00;0.00;;;16.00;81.20;;;;;;4175065;28;20415;-72
2022/10/10 06:05:20;;;;;;;0.00;0.00;;;16.00;81.30;;;;;;4173725;28;20187;-72
2022/10/10 06:08:01;;;;;;;0.00;0.00;;;16.00;81.30;;;;;;4174285;28;20118;-71
2022/10/10 06:10:50;;;;;;;0.65;0.65;;;15.90;81.30;;;;;;4162195;28;20117;-71
2022/10/10 06:13:31;;;;;;;0.00;0.00;;;15.90;81.30;;;;;;4191164;28;20071;-71
2022/10/10 06:16:12;;;;;;;;;;;15.90;81.40;;;;;;4159538;28;20592;-70
2022/10/10 06:18:55;;;;;;;0.00;0.00;;;15.90;81.30;;;;;;4179414;28;19931;-71
2022/10/10 06:21:37;;;;;;;0.00;0.00;;;15.90;81.30;;;;;;4190047;28;20064;-71
2022/10/10 06:24:18;;;;;;;0.08;0.08;;;15.90;81.50;;;;;;4174107;28;20518;-71
2022/10/10 06:26:59;;;;;;;0.00;0.00;;;15.90;81.60;;;;;;4167907;28;20505;-71
2022/10/10 06:29:39;;;;;;;0.03;0.03;;;15.90;81.60;;;;;;4178597;28;20055;-71
2022/10/10 06:32:20;;;;;;;0.00;0.00;;;15.90;82.50;;;;;;4190614;28;20056;-72
2022/10/10 06:35:02;;;;;;;;;;;15.90;81.60;;;;;;4190787;28;20071;-71
2022/10/10 06:37:44;;;;;;;0.20;0.20;;;15.80;81.60;;;;;;4190358;28;20392;-71
2022/10/10 06:40:25;;;;;;;0.00;0.00;;;15.80;81.60;;;;;;4178662;28;20051;-71
2022/10/10 06:43:10;;;;;;;0.08;0.08;;;15.80;81.60;;;;;;4174556;28;20399;-71
2022/10/10 06:45:50;;;;;;;0.00;0.00;;;15.80;81.60;;;;;;4190310;28;20040;-71
2022/10/10 06:48:34;;;;;;;1.08;0.80;;;15.80;81.60;;;;;;4189942;28;20059;-71
2022/10/10 06:51:16;;;;;;;0.00;0.00;;;15.80;81.60;;;;;;4190351;28;20056;-71
2022/10/10 06:53:59;;;;;;;0.00;0.00;;;15.80;81.60;;;;;;4190880;28;20067;-71
2022/10/10 06:56:40;;;;;;;0.00;0.00;;;15.80;81.60;;;;;;4191068;28;20055;-71
2022/10/10 06:59:21;;;;;;;0.00;0.00;;;15.80;81.60;;;;;;4190830;28;20043;-70
2022/10/10 07:02:02;;;;;;;0.08;0.08;;;15.80;81.60;;;;;;4191168;28;20178;-71
2022/10/10 07:04:43;;;;;;;0.00;0.00;;;15.80;81.60;;;;;;4191331;28;20052;-70
2022/10/10 07:07:23;;;;;;;0.00;0.00;;;15.80;81.50;;;;;;4190773;28;20076;-70
2022/10/10 07:10:07;;;;;;;0.00;0.00;;;15.80;81.50;;;;;;4189894;28;20044;-70
2022/10/10 07:12:49;;;;;;;0.00;0.00;;;15.80;81.60;;;;;;4190374;28;20068;-70
2022/10/10 07:15:29;;;;;;;0.00;0.00;;;15.80;82.40;;;;;;4185843;28;20072;-70
2022/10/10 07:18:11;;;;;;;0.00;0.00;;;15.80;81.50;;;;;;4189886;28;20043;-70
2022/10/10 07:20:55;;;;;;;;;;;15.80;81.50;;;;;;4187266;28;20078;-70
2022/10/10 07:23:36;;;;;;;0.35;0.35;;;15.80;81.50;;;;;;4190740;28;19973;-70
2022/10/10 07:26:21;;;;;;;0.00;0.00;;;15.80;81.50;;;;;;4191076;28;20101;-69
2022/10/10 07:29:01;;;;;;;0.00;0.00;;;15.70;81.40;;;;;;4191240;28;20048;-70
2022/10/10 07:31:42;;;;;;;0.00;0.00;;;15.70;81.40;;;;;;4173902;28;20052;-71
2022/10/10 07:34:23;;;;;;;0.55;0.55;;;15.80;81.50;;;;;;4201548;28;20154;-70
2022/10/10 07:37:04;;;;;;;0.00;0.00;;;15.70;81.50;;;;;;4189574;28;20509;-70
2022/10/10 07:39:45;;;;;;;0.00;0.00;;;15.70;81.50;;;;;;4201755;28;20149;-70
2022/10/10 07:42:27;;;;;;;0.00;0.00;;;15.80;81.60;;;;;;4184897;28;20118;-70
2022/10/10 07:45:10;;;;;;;0.00;0.00;;;15.70;81.50;;;;;;4193334;28;20047;-70
2022/10/10 07:47:52;;;;;;;0.00;0.00;;;15.70;81.50;;;;;;4209916;28;20047;-70
2022/10/10 07:50:34;;;;;;;0.20;0.20;;;15.70;81.60;;;;;;4195917;28;20050;-70
2022/10/10 07:53:15;;;;;;;0.00;0.00;;;15.80;81.60;;;;;;4184109;28;20407;-70
2022/10/10 07:55:55;;;;;;;0.00;0.00;;;15.80;81.60;;;;;;4193214;28;20051;-70
2022/10/10 07:58:38;;;;;;;0.00;0.00;;;15.80;81.60;;;;;;4176292;28;20095;-70
2022/10/10 08:01:19;;;;;;;0.00;0.00;;;15.80;81.50;;;;;;4179240;28;20094;-70
2022/10/10 08:04:00;;;;;;;;;;;15.90;81.60;;;;;;4164921;28;20043;-70
2022/10/10 08:06:41;;;;;;;0.00;0.00;;;15.90;81.50;;;;;;4193483;28;19931;-70
2022/10/10 08:09:22;;;;;;;0.75;0.75;;;15.90;81.60;;;;;;4168349;28;20047;-70
2022/10/10 08:12:03;;;;;;;0.00;0.00;;;15.90;81.60;;;;;;4193142;28;20051;-70
2022/10/10 08:14:46;;;;;;;0.00;0.00;;;15.90;81.70;;;;;;4176235;28;20182;-71
2022/10/10 08:17:27;;;;;;;0.00;0.00;;;15.90;81.80;;;;;;4203660;28;20039;-70
2022/10/10 08:20:08;;;;;;;0.03;0.03;;;16.00;81.90;;;;;;4192623;28;20051;-70
2022/10/10 08:22:48;;;;;;;3.83;1.65;;;16.00;82.10;;;;;;4190867;28;20043;-69
2022/10/10 08:25:30;;;;;;;0.15;0.15;;;16.00;82.00;;;;;;4193300;28;20055;-69
2022/10/10 08:28:10;;;;;;;0.00;0.00;;;16.00;82.00;;;;;;4189021;28;20060;-69
2022/10/10 08:30:53;;;;;;;0.00;0.00;;;16.00;82.00;;;;;;4178437;28;20059;-71
2022/10/10 08:33:34;;;;;;;0.00;0.00;;;16.00;82.00;;;;;;4192997;28;20079;-70
2022/10/10 08:36:18;;;;;;;0.10;0.10;;;16.00;81.80;;;;;;4190977;28;20356;-71
2022/10/10 08:39:00;;;;;;;0.00;0.00;;;16.00;81.70;;;;;;4174245;28;20106;-70
2022/10/10 08:41:46;;;;;;;0.00;0.00;;;16.00;81.70;;;;;;4159612;28;20044;-70
2022/10/10 08:44:37;;;;;;;0.00;0.00;;;16.10;81.70;;;;;;4175480;28;20130;-70
2022/10/10 08:47:23;;;;;;;0.00;0.00;;;16.10;81.60;;;;;;4160542;28;20051;-70
2022/10/10 08:50:11;;;;;;;0.00;0.00;;;16.10;81.60;;;;;;4187315;28;20117;-70
2022/10/10 08:52:57;;;;;;;0.00;0.00;;;16.10;81.40;;;;;;4192765;28;20145;-70
2022/10/10 08:55:42;;;;;;;0.00;0.00;;;16.10;81.20;;;;;;4192268;28;20150;-70
2022/10/10 08:58:28;;;;;;;0.00;0.00;;;16.10;81.20;;;;;;4192247;28;20602;-71
2022/10/10 09:01:14;;;;;;;0.00;0.00;;;16.20;81.20;;;;;;4192553;28;20635;-69
2022/10/10 09:03:59;;;;;;;0.00;0.00;;;16.20;81.00;;;;;;4180330;28;20153;-69
2022/10/10 09:06:58;;;;;;;0.00;0.00;;;16.20;80.90;;;;;;4178059;28;20052;-70
2022/10/10 09:09:52;;;;;;;0.00;0.00;;;16.30;81.00;;;;;;4179594;28;20071;-69
2022/10/10 09:12:44;;;;;;;0.03;0.03;;;16.30;80.90;;;;;;4175161;28;20067;-69
2022/10/10 09:15:29;;;;;;;;;;;16.40;80.70;;;;;;4192106;28;20097;-69
2022/10/10 09:18:20;;;;;;;0.00;0.00;;;16.40;80.60;;;;;;4188763;28;20001;-70
2022/10/10 09:21:13;;;;;;;0.10;0.10;;;16.40;80.40;;;;;;4166396;28;20056;-69
2022/10/10 09:24:00;;;;;;;0.30;0.30;;;16.40;80.30;;;;;;4158781;28;20111;-70
2022/10/10 09:26:46;;;;;;;0.00;0.00;;;16.40;80.10;;;;;;4158827;28;20045;-70
2022/10/10 09:29:32;;;;;;;0.00;0.00;;;16.50;80.10;;;;;;4147882;28;20064;-70
2022/10/10 09:32:17;;;;;;;0.00;0.00;;;16.40;79.90;;;;;;4174603;28;20067;-70
2022/10/10 09:35:05;;;;;;;0.00;0.00;;;16.40;79.80;;;;;;4175068;28;20151;-69
2022/10/10 09:37:50;;;;;;;0.25;0.25;;;16.50;79.80;;;;;;4179642;28;20217;-71
2022/10/10 09:40:36;;;;;;;0.00;0.00;;;16.50;79.70;;;;;;4191073;28;20064;-71
2022/10/10 09:43:19;;;;;;;0.45;0.45;;;16.50;79.60;;;;;;4166436;28;20035;-70
2022/10/10 09:46:01;;;;;;;0.10;0.10;;;16.60;79.50;;;;;;4172667;28;20048;-70
2022/10/10 09:48:43;;;;;;;0.80;0.80;;;16.60;79.40;;;;;;4174554;28;20043;-71
2022/10/10 09:51:24;;;;;;;0.15;0.15;;;16.60;79.30;;;;;;4158934;28;20049;-70
2022/10/10 09:54:07;;;;;;;0.55;0.55;;;16.60;79.40;;;;;;4182225;28;20051;-71
2022/10/10 09:56:53;;;;;;;0.00;0.00;;;16.60;79.60;;;;;;4186551;28;20124;-71
2022/10/10 09:59:39;;;;;;;0.00;0.00;;;16.60;79.50;;;;;;4175248;28;20506;-68
2022/10/10 10:02:22;;;;;;;0.00;0.00;;;16.60;79.40;;;;;;4193834;28;20699;-71
2022/10/10 10:05:18;;;;;;;2.38;0.85;;;16.60;79.20;;;;;;4207421;28;20075;-71
2022/10/10 10:08:00;;;;;;;0.00;0.00;;;16.60;79.20;;;;;;4197774;28;20052;-71
2022/10/10 10:10:42;;;;;;;0.00;0.00;;;16.70;79.10;;;;;;4175695;28;20057;-71
2022/10/10 10:13:27;;;;;;;0.13;0.13;;;16.60;78.90;;;;;;4188229;28;20086;-71
2022/10/10 10:16:12;;;;;;;0.80;0.80;;;16.60;78.80;;;;;;4188860;28;20055;-70
2022/10/10 10:18:53;;;;;;;0.00;0.00;;;16.60;78.80;;;;;;4175779;28;20144;-70
2022/10/10 10:21:49;;;;;;;0.00;0.00;;;16.60;78.80;;;;;;4188572;28;20064;-71
2022/10/10 10:24:35;;;;;;;0.20;0.20;;;16.60;79.60;;;;;;4186535;28;20056;-71
2022/10/10 10:27:22;;;;;;;0.13;0.13;;;16.60;78.70;;;;;;4186897;28;20055;-71
2022/10/10 10:30:03;;;;;;;0.00;0.00;;;16.60;78.70;;;;;;4188710;28;20059;-71
2022/10/10 10:32:53;;;;;;;0.10;0.10;;;16.60;78.70;;;;;;4187005;28;20063;-71
2022/10/10 10:35:39;;;;;;;0.00;0.00;;;16.70;78.70;;;;;;4187790;28;20063;-71
2022/10/10 10:38:33;;;;;;;0.00;0.00;;;16.60;78.60;;;;;;4160228;28;20055;-71
2022/10/10 10:41:22;;;;;;;0.00;0.00;;;16.60;78.60;;;;;;4163676;28;20055;-72
2022/10/10 10:44:17;;;;;;;0.10;0.10;;;16.70;78.90;;;;;;4187501;28;20549;-72
2022/10/10 10:47:10;;;;;;;0.00;0.00;;;16.70;78.80;;;;;;4175334;28;20051;-75
2022/10/10 10:50:05;;;;;;;0.00;0.00;;;16.70;78.70;;;;;;4174431;28;20257;-75
2022/10/10 10:52:56;;;;;;;0.00;0.00;;;16.80;78.70;;;;;;4188230;28;20052;-73
2022/10/10 10:55:42;;;;;;;0.10;0.10;;;16.80;78.50;;;;;;4179575;28;20048;-71
2022/10/10 10:58:46;;;;;;;0.00;0.00;;;16.80;78.50;;;;;;4188013;28;20624;-70
2022/10/10 11:01:56;;;;;;;0.20;0.20;;;16.80;78.50;;;;;;4175420;28;20415;-70
2022/10/10 11:05:01;;;;;;;0.00;0.00;;;16.90;78.50;;;;;;4159170;28;20138;-73
2022/10/10 11:08:28;;;;;;;0.38;0.15;;;16.90;78.50;;;;;;4197143;28;20402;-72
2022/10/10 11:11:32;;;;;;;0.00;0.00;;;16.90;78.50;;;;;;4171225;28;20095;-71
2022/10/10 11:14:30;;;;;;;0.57;0.57;;;16.90;78.50;;;;;;4171162;28;20052;-73
2022/10/10 11:17:19;;;;;;;0.00;0.00;;;16.90;78.40;;;;;;4171579;28;20110;-69
2022/10/10 11:20:05;;;;;;;0.00;0.00;;;16.90;78.50;;;;;;4169200;28;20183;-69
2022/10/10 11:22:52;;;;;;;0.10;0.10;;;16.90;78.40;;;;;;4190271;28;20445;-70
2022/10/10 11:25:41;;;;;;;2.17;1.88;;;16.90;78.40;;;;;;4191755;28;20134;-69
2022/10/10 11:28:26;;;;;;;0.00;0.00;;;16.90;78.40;;;;;;4192328;28;20052;-68
2022/10/10 11:31:11;;;;;;;0.47;0.47;;;16.90;78.30;;;;;;4162370;28;20098;-68
2022/10/10 11:33:59;;;;;;;0.52;0.52;;;16.90;78.30;;;;;;4174391;28;20130;-68
2022/10/10 11:36:44;;;;;;;0.65;0.57;;;16.90;78.20;;;;;;4177985;28;20095;-68
2022/10/10 11:39:31;;;;;;;0.52;0.52;;;16.90;78.20;;;;;;4174874;28;20156;-68
2022/10/10 11:42:18;;;;;;;0.25;0.25;;;16.90;78.20;;;;;;4204168;28;20105;-69
2022/10/10 11:45:04;;;;;;;0.00;0.00;;;16.90;78.10;;;;;;4190598;28;20463;-70
2022/10/10 11:47:50;;;;;;;0.00;0.00;;;16.90;78.20;;;;;;4191799;28;20043;-69
2022/10/10 11:50:39;;;;;;;0.10;0.10;;;16.90;78.20;;;;;;4190691;28;20514;-69
2022/10/10 11:53:26;;;;;;;0.00;0.00;;;16.90;78.30;;;;;;4191596;28;20125;-68
2022/10/10 11:56:17;;;;;;;0.00;0.00;;;16.90;78.30;;;;;;4191675;28;20070;-68
2022/10/10 11:59:04;;;;;;;0.00;0.00;;;16.90;78.30;;;;;;4191479;28;20059;-68
2022/10/10 12:01:50;;;;;;;0.00;0.00;;;16.80;78.30;;;;;;4175493;28;20074;-68
2022/10/10 12:04:35;;;;;;;1.17;0.95;;;16.80;78.40;;;;;;4173251;28;20191;-69
2022/10/10 12:07:23;;;;;;;0.68;0.68;;;16.80;78.70;;;;;;4190129;28;20134;-68
2022/10/10 12:10:09;;;;;;;1.45;1.17;;;16.80;78.90;;;;;;4191378;28;20071;-69
2022/10/10 12:12:53;;;;;;;3.65;2.45;;;16.90;79.00;;;;;;4191351;28;20062;-69
2022/10/10 12:15:37;;;;;;;0.00;0.00;;;16.80;78.90;;;;;;4189914;28;20067;-67
2022/10/10 12:18:29;;;;;;;0.00;0.00;;;16.80;78.90;;;;;;4191218;28;20079;-67
2022/10/10 12:21:13;;;;;;;0.00;0.00;;;16.80;78.90;;;;;;4163804;28;20122;-68
2022/10/10 12:24:05;;;;;;;0.15;0.15;;;16.80;78.90;;;;;;4173927;28;20056;-68
2022/10/10 12:27:28;;;;;;;0.35;0.35;;;16.80;78.90;;;;;;4175671;28;20064;-69
2022/10/10 12:30:23;;;;;;;0.25;0.25;;;16.80;78.90;;;;;;4189147;28;20090;-73
2022/10/10 12:33:19;;;;;;;0.15;0.15;;;16.80;78.90;;;;;;4172903;28;20080;-70
2022/10/10 12:36:42;;;;;;;0.38;0.30;;;16.80;79.00;;;;;;4190057;28;20178;-69
2022/10/10 12:39:38;;;;;;;0.00;0.00;;;16.80;79.00;;;;;;4182143;28;20056;-70
2022/10/10 12:42:31;;;;;;;5.28;2.53;;;16.80;79.10;;;;;;4172370;28;20074;-69
2022/10/10 12:45:45;;;;;;;0.00;0.00;;;16.80;79.10;;;;;;4178205;28;20565;-68
2022/10/10 12:48:26;;;;;;;0.30;0.30;;;16.80;79.20;;;;;;4190118;28;20044;-69
2022/10/10 12:51:20;;;;;;;0.00;0.00;;;16.80;79.20;;;;;;4188591;28;20403;-69
2022/10/10 12:54:04;;;;;;;0.00;0.00;;;16.80;79.30;;;;;;4205909;28;20078;-69
2022/10/10 12:56:47;;;;;;;0.10;0.10;;;16.80;79.30;;;;;;4181677;28;20052;-68
2022/10/10 12:59:29;;;;;;;0.05;0.05;;;16.80;79.30;;;;;;4173055;28;20067;-70
2022/10/10 13:02:16;;;;;;;6.63;1.17;;;16.80;79.40;;;;;;4160807;28;20059;-68
2022/10/10 13:05:01;;;;;;;2.85;1.33;;;16.80;79.60;;;;;;4173318;28;20060;-68
2022/10/10 13:07:44;;;;;;;0.00;0.00;;;16.80;79.50;;;;;;4160942;28;20392;-68
2022/10/10 13:10:27;;;;;;;0.05;0.05;;;16.80;80.40;;;;;;4183144;28;20060;-68
2022/10/10 13:13:18;;;;;;;0.13;0.13;;;16.80;79.50;;;;;;4173015;28;20056;-68
2022/10/10 13:16:07;;;;;;;0.00;0.00;;;16.80;79.60;;;;;;4180451;28;20137;-68
2022/10/10 13:18:51;;;;;;;0.00;0.00;;;16.80;79.70;;;;;;4189726;28;20254;-68
2022/10/10 13:21:34;;;;;;;0.00;0.00;;;16.80;79.80;;;;;;4188725;28;20063;-68
2022/10/10 13:24:18;;;;;;;0.52;0.52;;;16.80;79.90;;;;;;4174365;28;20179;-68
2022/10/10 13:27:00;;;;;;;0.80;0.80;;;16.80;79.90;;;;;;4189519;28;20051;-68
2022/10/10 13:29:43;;;;;;;0.10;0.10;;;16.80;79.90;;;;;;4176074;28;20067;-68
2022/10/10 13:32:26;;;;;;;0.00;0.00;;;16.80;80.00;;;;;;4188616;28;20190;-68
2022/10/10 13:35:14;;;;;;;0.10;0.10;;;16.80;79.90;;;;;;4176633;28;20043;-68
2022/10/10 13:37:57;;;;;;;0.00;0.00;;;16.80;80.90;;;;;;4172622;28;20055;-69
2022/10/10 13:40:40;;;;;;;0.00;0.00;;;16.80;80.00;;;;;;4181483;28;20047;-68
2022/10/10 13:43:22;;;;;;;0.68;0.68;;;16.80;80.00;;;;;;4189586;28;20487;-67
2022/10/10 13:46:04;;;;;;;;;;;16.80;80.10;;;;;;4190305;28;20056;-67
2022/10/10 13:48:44;;;;;;;;;;;16.80;80.10;;;;;;4189859;28;19931;-67
2022/10/10 13:51:41;;;;;;;1.77;1.67;;;16.70;80.90;;;;;;4189798;28;19966;-67
2022/10/10 13:54:43;;;;;;;0.00;0.00;;;16.70;80.10;;;;;;4189261;28;20059;-66
2022/10/10 13:57:27;;;;;;;0.00;0.00;;;16.70;80.20;;;;;;4188843;28;21016;-67
2022/10/10 14:00:16;;;;;;;0.00;0.00;;;16.70;80.30;;;;;;4173594;28;20507;-67
2022/10/10 14:02:58;;;;;;;0.00;0.00;;;16.70;80.40;;;;;;4160284;28;20110;-67
2022/10/10 14:05:44;;;;;;;0.10;0.10;;;16.70;80.40;;;;;;4190946;28;20054;-67
2022/10/10 14:08:28;;;;;;;1.30;1.20;;;16.70;80.90;;;;;;4173911;28;20051;-71
2022/10/10 14:11:16;;;;;;;0.00;0.00;;;16.70;81.50;;;;;;4202615;28;20882;-70
2022/10/10 14:14:04;;;;;;;0.00;0.00;;;16.70;81.70;;;;;;4172218;28;20051;-70
2022/10/10 14:16:45;;;;;;;0.00;0.00;;;16.80;81.90;;;;;;4180596;28;20562;-69
2022/10/10 14:19:28;;;;;;;0.15;0.15;;;16.70;81.70;;;;;;4198973;28;20044;-69